Time;durP1;ratioP1;P1;durP2;ratioP2;P2;SDS_P1;SDS_P2;PMS_P1;PMS_P2;Temp;Humidity;BMP_temperature;BMP_pressure;BME280_temperature;BME280_humidity;BME280_pressure;Samples;Min_cycle;Max_cycle;Signal;HPM_P1;HPM_P2
2024/01/12 00:00:08;;;;;;;3.22;0.80;;;;;;;;;;5064814;28;20055;-74
2024/01/12 00:02:42;;;;;;;0.77;0.60;;;;;;;;;;5064722;28;20480;-73
2024/01/12 00:05:13;;;;;;;4.07;0.80;;;;;;;;;;5063796;28;20048;-74
2024/01/12 00:07:44;;;;;;;6.97;0.80;;;;;;;;;;5064252;28;20053;-74
2024/01/12 00:10:17;;;;;;;0.70;0.43;;;;;;;;;;5064431;28;20500;-73
2024/01/12 00:12:49;;;;;;;2.28;0.80;;;;;;;;;;5063460;28;20048;-74
2024/01/12 00:15:19;;;;;;;2.67;0.60;;;;;;;;;;5063990;28;20056;-74
2024/01/12 00:17:49;;;;;;;4.45;1.98;;;;;;;;;;5063822;28;20566;-73
2024/01/12 00:20:19;;;;;;;3.53;0.85;;;;;;;;;;5063401;28;20527;-74
2024/01/12 00:22:50;;;;;;;5.18;0.60;;;;;;;;;;5063636;28;20427;-74
2024/01/12 00:25:21;;;;;;;3.05;1.33;;;;;;;;;;5063993;28;20040;-73
2024/01/12 00:27:52;;;;;;;1.92;0.50;;;;;;;;;;5064587;28;20498;-73
2024/01/12 00:30:22;;;;;;;0.73;0.50;;;;;;;;;;5064470;28;20048;-74
2024/01/12 00:32:56;;;;;;;4.38;0.60;;;;;;;;;;5063447;28;20049;-74
2024/01/12 00:35:28;;;;;;;4.65;0.70;;;;;;;;;;5063870;28;20040;-74
2024/01/12 00:37:58;;;;;;;3.05;0.60;;;;;;;;;;5062452;28;20056;-76
2024/01/12 00:40:28;;;;;;;4.72;0.82;;;;;;;;;;5062677;28;20036;-77
2024/01/12 00:42:59;;;;;;;10.15;1.00;;;;;;;;;;5062360;28;20611;-77
2024/01/12 00:45:30;;;;;;;1.95;0.60;;;;;;;;;;5061541;28;20060;-75
2024/01/12 00:48:00;;;;;;;2.20;0.60;;;;;;;;;;5062195;28;20044;-76
2024/01/12 00:50:31;;;;;;;3.22;0.70;;;;;;;;;;5063460;28;20040;-76
2024/01/12 00:53:01;;;;;;;1.52;0.55;;;;;;;;;;5061725;28;20053;-74
2024/01/12 00:55:33;;;;;;;2.75;0.57;;;;;;;;;;5063847;28;20044;-77
2024/01/12 00:58:04;;;;;;;6.80;0.85;;;;;;;;;;5064048;28;20504;-77
2024/01/12 01:00:34;;;;;;;5.07;0.73;;;;;;;;;;5063510;28;20044;-75
2024/01/12 01:03:06;;;;;;;10.20;0.90;;;;;;;;;;5064013;28;20574;-73
2024/01/12 01:05:36;;;;;;;2.88;0.80;;;;;;;;;;5061580;28;20064;-74
2024/01/12 01:08:07;;;;;;;13.68;4.45;;;;;;;;;;5062892;28;20059;-73
2024/01/12 01:10:38;;;;;;;6.85;1.35;;;;;;;;;;5063553;28;20045;-73
2024/01/12 01:13:09;;;;;;;7.18;1.63;;;;;;;;;;5063488;28;20041;-75
2024/01/12 01:15:42;;;;;;;5.75;1.90;;;;;;;;;;5063032;28;20055;-72
2024/01/12 01:18:12;;;;;;;10.55;1.75;;;;;;;;;;5062820;28;20049;-73
2024/01/12 01:20:43;;;;;;;5.95;1.83;;;;;;;;;;5063152;28;20052;-72
2024/01/12 01:23:15;;;;;;;2.75;1.10;;;;;;;;;;5062928;28;20045;-75
2024/01/12 01:25:46;;;;;;;2.63;1.33;;;;;;;;;;5063079;28;20037;-74
2024/01/12 01:28:17;;;;;;;2.88;0.80;;;;;;;;;;5062928;28;20045;-77
2024/01/12 01:30:47;;;;;;;6.35;1.30;;;;;;;;;;5061110;28;20522;-74
2024/01/12 01:33:20;;;;;;;1.48;0.90;;;;;;;;;;5062295;28;20060;-75
2024/01/12 01:35:50;;;;;;;6.72;1.23;;;;;;;;;;5063075;28;20384;-75
2024/01/12 01:38:22;;;;;;;5.25;1.27;;;;;;;;;;5062543;28;20614;-77
2024/01/12 01:40:52;;;;;;;7.78;1.33;;;;;;;;;;5062235;28;20052;-78
2024/01/12 01:43:23;;;;;;;5.05;1.30;;;;;;;;;;5062145;28;20513;-75
2024/01/12 01:45:55;;;;;;;3.65;0.80;;;;;;;;;;5062485;28;20051;-77
2024/01/12 01:48:26;;;;;;;7.55;0.70;;;;;;;;;;5062097;28;20052;-73
2024/01/12 01:50:57;;;;;;;6.90;0.75;;;;;;;;;;5063030;28;20060;-76
2024/01/12 01:53:28;;;;;;;3.15;0.80;;;;;;;;;;5062381;28;20423;-76
2024/01/12 01:55:59;;;;;;;4.50;0.95;;;;;;;;;;5062279;28;20040;-77
2024/01/12 01:58:29;;;;;;;4.90;0.70;;;;;;;;;;5061979;28;20690;-75
2024/01/12 02:00:59;;;;;;;7.47;0.90;;;;;;;;;;5062548;28;20512;-75
2024/01/12 02:03:30;;;;;;;0.80;0.75;;;;;;;;;;5061268;28;20060;-73
2024/01/12 02:06:02;;;;;;;4.25;0.80;;;;;;;;;;5062463;28;20052;-74
2024/01/12 02:08:33;;;;;;;7.97;0.93;;;;;;;;;;5063634;28;20071;-74
2024/01/12 02:11:05;;;;;;;5.45;1.00;;;;;;;;;;5063104;28;20052;-75
2024/01/12 02:13:35;;;;;;;2.90;0.88;;;;;;;;;;5063077;28;20051;-74
2024/01/12 02:16:06;;;;;;;3.92;0.88;;;;;;;;;;5062773;28;20389;-75
2024/01/12 02:18:38;;;;;;;4.70;0.90;;;;;;;;;;5063138;28;20632;-74
2024/01/12 02:21:08;;;;;;;3.90;0.77;;;;;;;;;;5063215;28;20056;-71
2024/01/12 02:23:38;;;;;;;1.20;0.85;;;;;;;;;;5064540;28;20048;-71
2024/01/12 02:26:09;;;;;;;3.35;0.90;;;;;;;;;;5064020;28;20049;-72
2024/01/12 02:28:39;;;;;;;8.35;1.00;;;;;;;;;;5061717;28;20052;-76
2024/01/12 02:31:10;;;;;;;4.25;0.80;;;;;;;;;;5062035;28;20551;-74
2024/01/12 02:33:41;;;;;;;5.15;1.02;;;;;;;;;;5061718;28;20511;-76
2024/01/12 02:36:11;;;;;;;11.55;1.50;;;;;;;;;;5061637;28;20045;-75
2024/01/12 02:38:50;;;;;;;10.75;1.33;;;;;;;;;;5062062;28;20515;-75
2024/01/12 02:41:22;;;;;;;4.43;1.10;;;;;;;;;;5061708;28;20053;-73
2024/01/12 02:43:53;;;;;;;3.90;1.00;;;;;;;;;;5062178;28;20056;-74
2024/01/12 02:46:25;;;;;;;2.50;0.93;;;;;;;;;;5061687;28;20655;-73
2024/01/12 02:48:56;;;;;;;3.63;1.13;;;;;;;;;;5060275;28;20048;-75
2024/01/12 02:51:26;;;;;;;6.68;0.80;;;;;;;;;;5061779;28;20059;-75
2024/01/12 02:53:58;;;;;;;6.43;1.13;;;;;;;;;;5060543;28;20043;-76
2024/01/12 02:56:28;;;;;;;7.88;1.00;;;;;;;;;;5062249;28;20411;-73
2024/01/12 02:58:58;;;;;;;3.78;0.95;;;;;;;;;;5061803;28;20036;-74
2024/01/12 03:01:28;;;;;;;3.53;0.90;;;;;;;;;;5061229;28;20046;-75
2024/01/12 03:03:59;;;;;;;9.85;1.10;;;;;;;;;;5061476;28;20048;-73
2024/01/12 03:06:30;;;;;;;4.63;1.50;;;;;;;;;;5061518;28;20068;-73
2024/01/12 03:09:01;;;;;;;7.45;1.13;;;;;;;;;;5062248;28;20048;-74
2024/01/12 03:11:31;;;;;;;1.25;0.88;;;;;;;;;;5061477;28;20055;-73
2024/01/12 03:14:03;;;;;;;7.10;1.20;;;;;;;;;;5061562;28;20408;-74
2024/01/12 03:16:33;;;;;;;5.97;1.10;;;;;;;;;;5061299;28;20064;-74
2024/01/12 03:19:03;;;;;;;5.28;0.80;;;;;;;;;;5065915;28;20045;-73
2024/01/12 03:21:34;;;;;;;5.93;0.95;;;;;;;;;;5064154;28;20055;-77
2024/01/12 03:24:05;;;;;;;4.65;1.00;;;;;;;;;;5065366;28;20051;-72
2024/01/12 03:26:39;;;;;;;3.60;0.80;;;;;;;;;;5065030;28;20064;-74
2024/01/12 03:29:10;;;;;;;2.05;1.60;;;;;;;;;;5064886;28;20051;-77
2024/01/12 03:31:40;;;;;;;8.48;0.95;;;;;;;;;;5064594;28;20048;-74
2024/01/12 03:34:10;;;;;;;5.63;0.90;;;;;;;;;;5065355;28;20052;-76
2024/01/12 03:36:41;;;;;;;1.25;0.80;;;;;;;;;;5065103;28;20052;-74
2024/01/12 03:39:13;;;;;;;4.75;0.98;;;;;;;;;;5064617;28;20059;-72
2024/01/12 03:41:43;;;;;;;4.47;0.80;;;;;;;;;;5063092;28;20060;-77
2024/01/12 03:44:13;;;;;;;1.67;0.90;;;;;;;;;;5064395;28;20045;-76
2024/01/12 03:46:44;;;;;;;5.22;0.90;;;;;;;;;;5065029;28;20041;-71
2024/01/12 03:49:15;;;;;;;2.80;0.80;;;;;;;;;;5064669;28;20049;-74
2024/01/12 03:51:53;;;;;;;3.25;0.75;;;;;;;;;;5063890;28;20049;-72
2024/01/12 03:54:27;;;;;;;3.15;0.98;;;;;;;;;;5064929;28;20048;-74
2024/01/12 03:56:58;;;;;;;2.95;0.85;;;;;;;;;;5064496;28;20051;-76
2024/01/12 03:59:29;;;;;;;4.88;0.95;;;;;;;;;;5064399;28;20067;-77
2024/01/12 04:02:00;;;;;;;6.30;0.90;;;;;;;;;;5064465;28;20048;-73
2024/01/12 04:04:31;;;;;;;1.60;0.95;;;;;;;;;;5064630;28;20044;-74
2024/01/12 04:07:01;;;;;;;3.55;1.10;;;;;;;;;;5064254;28;20060;-73
2024/01/12 04:09:32;;;;;;;8.65;0.90;;;;;;;;;;5064181;28;20697;-72
2024/01/12 04:12:02;;;;;;;7.55;0.80;;;;;;;;;;5064145;28;20049;-74
2024/01/12 04:14:33;;;;;;;3.05;0.70;;;;;;;;;;5063994;28;20045;-74
2024/01/12 04:17:05;;;;;;;3.10;0.77;;;;;;;;;;5064484;28;20119;-73
2024/01/12 04:19:35;;;;;;;7.07;0.90;;;;;;;;;;5063848;28;20071;-72
2024/01/12 04:22:06;;;;;;;3.78;1.00;;;;;;;;;;5064771;28;20403;-75
2024/01/12 04:24:36;;;;;;;4.50;0.80;;;;;;;;;;5064764;28;20397;-75
2024/01/12 04:27:07;;;;;;;8.68;1.13;;;;;;;;;;5064075;28;20044;-76
2024/01/12 04:29:40;;;;;;;4.82;0.90;;;;;;;;;;5063351;28;20053;-74
2024/01/12 04:32:10;;;;;;;5.00;0.70;;;;;;;;;;5063617;28;20040;-72
2024/01/12 04:34:40;;;;;;;5.20;0.98;;;;;;;;;;5063496;28;20504;-73
2024/01/12 04:37:11;;;;;;;1.95;0.68;;;;;;;;;;5063732;28;20044;-73
2024/01/12 04:39:42;;;;;;;3.67;1.20;;;;;;;;;;5063786;28;20377;-74
2024/01/12 04:42:13;;;;;;;5.55;1.15;;;;;;;;;;5063283;28;20702;-71
2024/01/12 04:44:44;;;;;;;5.18;1.02;;;;;;;;;;5063007;28;20540;-72
2024/01/12 04:47:14;;;;;;;7.43;0.95;;;;;;;;;;5061739;28;20542;-75
2024/01/12 04:49:44;;;;;;;8.15;1.00;;;;;;;;;;5063434;28;20059;-76
2024/01/12 04:52:15;;;;;;;5.90;1.00;;;;;;;;;;5063729;28;20084;-76
2024/01/12 04:54:45;;;;;;;3.72;1.02;;;;;;;;;;5063627;28;20045;-74
2024/01/12 04:57:16;;;;;;;11.20;0.90;;;;;;;;;;5063040;28;20044;-76
2024/01/12 04:59:46;;;;;;;2.88;0.80;;;;;;;;;;5062276;28;20056;-77
2024/01/12 05:02:17;;;;;;;6.13;0.90;;;;;;;;;;5062191;28;20420;-77
2024/01/12 05:04:47;;;;;;;3.83;0.82;;;;;;;;;;5063217;28;20500;-72
2024/01/12 05:07:17;;;;;;;2.15;0.73;;;;;;;;;;5063265;28;21265;-76
2024/01/12 05:09:49;;;;;;;6.93;0.90;;;;;;;;;;5063022;28;20055;-71
2024/01/12 05:12:21;;;;;;;4.30;0.90;;;;;;;;;;5062721;28;20048;-74
2024/01/12 05:14:51;;;;;;;4.45;0.82;;;;;;;;;;5063203;28;20051;-74
2024/01/12 05:17:23;;;;;;;6.82;1.00;;;;;;;;;;5062646;28;20638;-76
2024/01/12 05:19:54;;;;;;;5.07;1.00;;;;;;;;;;5063129;28;20045;-74
2024/01/12 05:22:25;;;;;;;6.35;0.82;;;;;;;;;;5063119;28;20039;-73
2024/01/12 05:24:56;;;;;;;4.40;0.90;;;;;;;;;;5062631;28;20040;-74
2024/01/12 05:27:28;;;;;;;6.25;0.90;;;;;;;;;;5062894;28;20131;-73
2024/01/12 05:29:58;;;;;;;5.50;0.80;;;;;;;;;;5062779;28;20492;-75
2024/01/12 05:32:33;;;;;;;11.60;1.40;;;;;;;;;;5062866;28;20044;-73
2024/01/12 05:35:06;;;;;;;5.60;1.15;;;;;;;;;;5062627;28;20507;-75
2024/01/12 05:37:37;;;;;;;5.57;0.90;;;;;;;;;;5062582;28;20052;-75
2024/01/12 05:40:07;;;;;;;8.55;1.30;;;;;;;;;;5062153;28;20036;-75
2024/01/12 05:42:39;;;;;;;9.73;1.00;;;;;;;;;;5062678;28;20064;-73
2024/01/12 05:45:10;;;;;;;1.95;1.00;;;;;;;;;;5062361;28;20048;-74
2024/01/12 05:47:40;;;;;;;6.38;0.80;;;;;;;;;;5062816;28;20440;-74
2024/01/12 05:50:11;;;;;;;6.68;0.98;;;;;;;;;;5063256;28;20055;-74
2024/01/12 05:52:41;;;;;;;3.97;0.95;;;;;;;;;;5061008;28;20067;-73
2024/01/12 05:55:12;;;;;;;6.13;1.10;;;;;;;;;;5062098;28;20377;-74
2024/01/12 05:57:43;;;;;;;5.70;1.10;;;;;;;;;;5060986;28;20048;-72
2024/01/12 06:00:13;;;;;;;6.22;0.93;;;;;;;;;;5062613;28;20071;-73
2024/01/12 06:02:44;;;;;;;5.68;0.90;;;;;;;;;;5062137;28;20111;-72
2024/01/12 06:05:14;;;;;;;6.00;0.93;;;;;;;;;;5062429;28;20059;-76
2024/01/12 06:07:45;;;;;;;9.18;1.13;;;;;;;;;;5061847;28;20040;-76
2024/01/12 06:10:16;;;;;;;1.55;0.90;;;;;;;;;;5062121;28;20045;-75
2024/01/12 06:12:46;;;;;;;2.53;0.90;;;;;;;;;;5060877;28;20048;-74
2024/01/12 06:15:16;;;;;;;1.92;0.73;;;;;;;;;;5061976;28;20059;-76
2024/01/12 06:17:46;;;;;;;5.75;1.08;;;;;;;;;;5062146;28;20044;-74
2024/01/12 06:20:19;;;;;;;2.63;1.00;;;;;;;;;;5060956;28;20648;-76
2024/01/12 06:22:49;;;;;;;6.72;1.25;;;;;;;;;;5062928;28;20067;-71
2024/01/12 06:25:20;;;;;;;5.30;1.08;;;;;;;;;;5062732;28;20048;-75
2024/01/12 06:27:50;;;;;;;2.85;0.90;;;;;;;;;;5062068;28;20467;-75
2024/01/12 06:30:22;;;;;;;3.80;1.10;;;;;;;;;;5061783;28;20045;-75
2024/01/12 06:32:53;;;;;;;10.40;1.40;;;;;;;;;;5061763;28;20052;-74
2024/01/12 06:35:23;;;;;;;3.88;0.95;;;;;;;;;;5061749;28;20052;-71
2024/01/12 06:37:54;;;;;;;7.38;1.23;;;;;;;;;;5062026;28;20045;-72
2024/01/12 06:40:26;;;;;;;10.43;1.27;;;;;;;;;;5062020;28;20103;-77
2024/01/12 06:42:56;;;;;;;2.67;1.25;;;;;;;;;;5060075;28;20537;-76
2024/01/12 06:45:26;;;;;;;3.28;0.88;;;;;;;;;;5061519;28;20411;-72
2024/01/12 06:47:56;;;;;;;4.97;1.05;;;;;;;;;;5061756;28;20041;-73
2024/01/12 06:50:28;;;;;;;6.45;0.95;;;;;;;;;;5060593;28;20045;-74
2024/01/12 06:53:08;;;;;;;7.75;1.00;;;;;;;;;;5065165;28;20060;-75
2024/01/12 06:55:39;;;;;;;4.97;1.00;;;;;;;;;;5065868;28;20040;-73
2024/01/12 06:58:09;;;;;;;6.55;0.98;;;;;;;;;;5065709;28;20044;-72
2024/01/12 07:00:39;;;;;;;6.40;0.98;;;;;;;;;;5065277;28;20092;-71
2024/01/12 07:03:09;;;;;;;4.63;0.98;;;;;;;;;;5065800;28;20040;-76
2024/01/12 07:05:41;;;;;;;4.43;0.93;;;;;;;;;;5065908;28;20048;-75
2024/01/12 07:08:16;;;;;;;5.57;1.05;;;;;;;;;;5064194;28;20530;-75
2024/01/12 07:10:48;;;;;;;1.58;0.85;;;;;;;;;;5065566;28;20442;-72
2024/01/12 07:13:19;;;;;;;5.30;1.00;;;;;;;;;;5066057;28;20491;-73
2024/01/12 07:15:50;;;;;;;5.60;1.10;;;;;;;;;;5065564;28;20044;-75
2024/01/12 07:18:20;;;;;;;14.45;1.92;;;;;;;;;;5065754;28;20417;-74
2024/01/12 07:20:51;;;;;;;2.55;1.13;;;;;;;;;;5063991;28;20056;-75
2024/01/12 07:23:22;;;;;;;2.83;1.00;;;;;;;;;;5063591;28;20049;-72
2024/01/12 07:25:53;;;;;;;6.38;1.08;;;;;;;;;;5064030;28;20500;-73
2024/01/12 07:28:25;;;;;;;4.22;1.15;;;;;;;;;;5064742;28;20044;-75
2024/01/12 07:30:56;;;;;;;2.58;1.02;;;;;;;;;;5064785;28;20407;-75
2024/01/12 07:33:26;;;;;;;6.90;1.13;;;;;;;;;;5064516;28;20049;-75
2024/01/12 07:35:57;;;;;;;4.63;1.23;;;;;;;;;;5065094;28;20408;-72
2024/01/12 07:38:28;;;;;;;7.15;1.20;;;;;;;;;;5064618;28;20051;-76
2024/01/12 07:41:00;;;;;;;6.68;1.30;;;;;;;;;;5065189;28;20061;-75
2024/01/12 07:43:33;;;;;;;10.60;1.63;;;;;;;;;;5063736;28;20067;-74
2024/01/12 07:46:05;;;;;;;4.03;1.35;;;;;;;;;;5065789;28;20048;-74
2024/01/12 07:48:36;;;;;;;8.50;1.40;;;;;;;;;;5064476;28;20048;-75
2024/01/12 07:51:07;;;;;;;7.47;1.10;;;;;;;;;;5064628;28;20052;-72
2024/01/12 07:53:37;;;;;;;2.83;1.13;;;;;;;;;;5064964;28;20044;-72
2024/01/12 07:56:08;;;;;;;7.28;1.27;;;;;;;;;;5064331;28;20103;-73
2024/01/12 07:58:38;;;;;;;4.85;1.60;;;;;;;;;;5062899;28;20059;-74
2024/01/12 08:01:17;;;;;;;3.03;1.20;;;;;;;;;;5064890;28;20052;-72
2024/01/12 08:03:48;;;;;;;4.35;1.13;;;;;;;;;;5063990;28;20048;-75
2024/01/12 08:06:18;;;;;;;8.23;1.35;;;;;;;;;;5064594;28;20424;-76
2024/01/12 08:08:50;;;;;;;2.22;1.20;;;;;;;;;;5064089;28;20451;-75
2024/01/12 08:11:20;;;;;;;4.95;1.10;;;;;;;;;;5064149;28;20056;-73
2024/01/12 08:14:03;;;;;;;1.77;1.00;;;;;;;;;;5064623;28;20044;-75
2024/01/12 08:16:34;;;;;;;6.47;1.15;;;;;;;;;;5063549;28;20055;-75
2024/01/12 08:19:04;;;;;;;3.83;1.10;;;;;;;;;;5064110;28;20049;-75
2024/01/12 08:21:35;;;;;;;3.50;1.38;;;;;;;;;;5063877;28;20526;-74
2024/01/12 08:24:20;;;;;;;6.35;1.38;;;;;;;;;;5062305;28;20045;-74
2024/01/12 08:26:51;;;;;;;1.75;0.90;;;;;;;;;;5064066;28;20044;-74
2024/01/12 08:29:23;;;;;;;3.03;1.05;;;;;;;;;;5063628;28;20049;-74
2024/01/12 08:31:53;;;;;;;5.57;1.20;;;;;;;;;;5063966;28;20522;-76
2024/01/12 08:34:23;;;;;;;3.72;1.00;;;;;;;;;;5063579;28;20052;-74
2024/01/12 08:36:53;;;;;;;3.45;1.10;;;;;;;;;;5063592;28;20045;-75
2024/01/12 08:39:26;;;;;;;9.80;1.10;;;;;;;;;;5063537;28;20045;-74
2024/01/12 08:41:57;;;;;;;5.80;1.08;;;;;;;;;;5063780;28;20056;-71
2024/01/12 08:44:28;;;;;;;8.95;1.05;;;;;;;;;;5064045;28;20392;-75
2024/01/12 08:46:58;;;;;;;3.80;1.00;;;;;;;;;;5063495;28;20051;-75
2024/01/12 08:49:28;;;;;;;6.88;1.23;;;;;;;;;;5063701;28;20045;-75
2024/01/12 08:51:59;;;;;;;7.45;1.27;;;;;;;;;;5063976;28;20490;-74
2024/01/12 08:54:29;;;;;;;12.60;1.42;;;;;;;;;;5062761;28;20070;-74
2024/01/12 08:56:59;;;;;;;5.00;1.45;;;;;;;;;;5063196;28;20048;-74
2024/01/12 08:59:29;;;;;;;11.05;1.80;;;;;;;;;;5063567;28;20040;-72
2024/01/12 09:02:00;;;;;;;3.17;1.10;;;;;;;;;;5063161;28;20045;-72
2024/01/12 09:04:32;;;;;;;8.57;1.25;;;;;;;;;;5063640;28;20049;-72
2024/01/12 09:07:03;;;;;;;6.75;1.13;;;;;;;;;;5063249;28;20496;-75
2024/01/12 09:09:34;;;;;;;3.22;1.10;;;;;;;;;;5063172;28;20036;-77
2024/01/12 09:12:07;;;;;;;1.83;0.95;;;;;;;;;;5062923;28;20357;-74
2024/01/12 09:14:38;;;;;;;7.85;1.85;;;;;;;;;;5061121;28;20080;-73
2024/01/12 09:17:08;;;;;;;7.32;1.38;;;;;;;;;;5061706;28;20052;-75
2024/01/12 09:19:39;;;;;;;5.70;1.23;;;;;;;;;;5062784;28;20044;-73
2024/01/12 09:22:09;;;;;;;3.35;1.00;;;;;;;;;;5063100;28;20044;-72
2024/01/12 09:24:40;;;;;;;9.15;1.60;;;;;;;;;;5062798;28;20048;-73
2024/01/12 09:27:11;;;;;;;5.65;1.33;;;;;;;;;;5062564;28;20056;-72
2024/01/12 09:29:41;;;;;;;10.70;1.50;;;;;;;;;;5062967;28;20087;-73
2024/01/12 09:32:12;;;;;;;6.07;1.15;;;;;;;;;;5062933;28;20048;-71
2024/01/12 09:34:42;;;;;;;25.50;2.90;;;;;;;;;;5061922;28;20061;-75
2024/01/12 09:37:13;;;;;;;9.88;1.40;;;;;;;;;;5062536;28;20044;-72
2024/01/12 09:39:43;;;;;;;20.60;7.68;;;;;;;;;;5060988;28;20530;-75
2024/01/12 09:42:17;;;;;;;6.20;1.42;;;;;;;;;;5062186;28;20048;-76
2024/01/12 09:44:52;;;;;;;6.88;1.20;;;;;;;;;;5062626;28;20052;-76
2024/01/12 09:47:36;;;;;;;9.60;1.45;;;;;;;;;;5062053;28;20052;-73
2024/01/12 09:50:08;;;;;;;7.47;0.90;;;;;;;;;;5062489;28;20511;-76
2024/01/12 09:52:40;;;;;;;4.53;1.42;;;;;;;;;;5061030;28;20439;-74
2024/01/12 09:55:10;;;;;;;6.32;0.95;;;;;;;;;;5062169;28;20055;-72
2024/01/12 09:57:41;;;;;;;3.08;0.90;;;;;;;;;;5062578;28;20404;-75
2024/01/12 10:00:14;;;;;;;4.55;1.27;;;;;;;;;;5062315;28;20040;-73
2024/01/12 10:02:47;;;;;;;6.72;1.00;;;;;;;;;;5060831;28;20526;-74
2024/01/12 10:05:18;;;;;;;5.53;1.13;;;;;;;;;;5062058;28;20040;-75
2024/01/12 10:07:49;;;;;;;6.70;1.00;;;;;;;;;;5062246;28;20040;-74
2024/01/12 10:10:19;;;;;;;3.67;0.80;;;;;;;;;;5062855;28;20052;-74
2024/01/12 10:12:53;;;;;;;4.25;1.20;;;;;;;;;;5061249;28;20040;-75
2024/01/12 10:15:24;;;;;;;4.18;1.17;;;;;;;;;;5061241;28;20155;-73
2024/01/12 10:17:55;;;;;;;4.93;1.10;;;;;;;;;;5062017;28;20629;-75
2024/01/12 10:20:26;;;;;;;7.28;0.95;;;;;;;;;;5062076;28;20518;-81
2024/01/12 10:22:59;;;;;;;2.72;0.70;;;;;;;;;;5061744;28;20044;-78
2024/01/12 10:25:30;;;;;;;7.70;1.08;;;;;;;;;;5061769;28;20052;-78
2024/01/12 10:28:00;;;;;;;5.93;1.20;;;;;;;;;;5061967;28;20500;-73
2024/01/12 10:30:31;;;;;;;1.95;0.70;;;;;;;;;;5061639;28;20048;-73
2024/01/12 10:33:04;;;;;;;4.65;1.02;;;;;;;;;;5061923;28;20048;-75
2024/01/12 10:35:35;;;;;;;5.93;1.00;;;;;;;;;;5061047;28;20056;-76
2024/01/12 10:38:09;;;;;;;1.55;0.80;;;;;;;;;;5061820;28;20048;-72
2024/01/12 10:40:40;;;;;;;8.38;1.40;;;;;;;;;;5061183;28;20037;-73
2024/01/12 10:43:17;;;;;;;9.32;1.20;;;;;;;;;;5062410;28;20048;-73
2024/01/12 10:45:52;;;;;;;12.95;2.38;;;;;;;;;;5062220;28;20051;-73
2024/01/12 10:48:27;;;;;;;7.05;1.02;;;;;;;;;;5062113;28;20040;-73
2024/01/12 10:51:01;;;;;;;6.65;1.02;;;;;;;;;;5061643;28;20052;-73
2024/01/12 10:53:42;;;;;;;3.05;0.68;;;;;;;;;;5061020;28;20048;-74
2024/01/12 10:56:13;;;;;;;3.65;1.00;;;;;;;;;;5062297;28;20061;-73
2024/01/12 10:58:44;;;;;;;3.47;0.70;;;;;;;;;;5062019;28;20048;-73
2024/01/12 11:01:15;;;;;;;6.45;0.88;;;;;;;;;;5061599;28;20059;-73
2024/01/12 11:03:49;;;;;;;8.13;1.05;;;;;;;;;;5061266;28;20119;-73
2024/01/12 11:06:23;;;;;;;4.05;0.80;;;;;;;;;;5053047;28;20484;-73
2024/01/12 11:08:55;;;;;;;6.03;1.75;;;;;;;;;;5041271;28;20059;-73
2024/01/12 11:11:47;;;;;;;5.60;1.13;;;;;;;;;;5041594;28;20655;-73
2024/01/12 11:14:20;;;;;;;6.95;3.00;;;;;;;;;;5042092;28;20048;-75
2024/01/12 11:16:50;;;;;;;6.03;1.10;;;;;;;;;;5041582;28;20048;-73
2024/01/12 11:19:25;;;;;;;2.03;0.88;;;;;;;;;;5041670;28;20049;-76
2024/01/12 11:22:10;;;;;;;4.15;0.80;;;;;;;;;;5041495;28;20037;-75
2024/01/12 11:24:45;;;;;;;1.40;0.60;;;;;;;;;;5041440;28;20053;-72
2024/01/12 11:27:15;;;;;;;7.45;1.23;;;;;;;;;;5041582;28;20053;-74
2024/01/12 11:29:46;;;;;;;2.38;0.85;;;;;;;;;;5041570;28;20610;-75
2024/01/12 11:32:16;;;;;;;5.68;0.70;;;;;;;;;;5041667;28;20681;-74
2024/01/12 11:34:47;;;;;;;8.40;1.10;;;;;;;;;;5041531;28;20041;-78
2024/01/12 11:37:18;;;;;;;5.72;0.73;;;;;;;;;;5041865;28;20045;-76
2024/01/12 11:39:55;;;;;;;4.13;0.80;;;;;;;;;;5044459;28;20594;-73
2024/01/12 11:42:26;;;;;;;5.57;0.90;;;;;;;;;;5045280;28;20049;-78
2024/01/12 11:44:56;;;;;;;5.00;0.80;;;;;;;;;;5044833;28;20492;-75
2024/01/12 11:47:29;;;;;;;5.05;0.60;;;;;;;;;;5043234;28;20057;-74
2024/01/12 11:50:03;;;;;;;3.85;0.63;;;;;;;;;;5044196;28;20453;-73
2024/01/12 11:52:33;;;;;;;3.80;0.73;;;;;;;;;;5044571;28;20496;-76
2024/01/12 11:55:08;;;;;;;3.40;0.70;;;;;;;;;;5044708;28;20040;-77
2024/01/12 11:57:39;;;;;;;2.78;0.70;;;;;;;;;;5044422;28;20045;-74
2024/01/12 12:00:10;;;;;;;5.93;0.77;;;;;;;;;;5044194;28;20049;-76
2024/01/12 12:02:41;;;;;;;5.90;0.73;;;;;;;;;;5044366;28;20531;-76
2024/01/12 12:05:19;;;;;;;1.58;0.52;;;;;;;;;;5044761;28;20060;-73
2024/01/12 12:07:51;;;;;;;2.60;0.68;;;;;;;;;;5044280;28;20048;-77
2024/01/12 12:10:25;;;;;;;2.60;0.70;;;;;;;;;;5044291;28;20488;-77
2024/01/12 12:13:10;;;;;;;2.65;0.73;;;;;;;;;;5045438;28;20041;-76
2024/01/12 12:15:40;;;;;;;7.75;1.15;;;;;;;;;;5043948;28;20045;-85
2024/01/12 12:18:11;;;;;;;3.05;0.63;;;;;;;;;;5044363;28;20044;-76
2024/01/12 12:20:43;;;;;;;2.30;0.60;;;;;;;;;;5043673;28;20041;-75
2024/01/12 12:23:14;;;;;;;8.00;1.15;;;;;;;;;;5044276;28;20523;-75
2024/01/12 12:25:44;;;;;;;4.78;1.02;;;;;;;;;;5043926;28;20071;-76
2024/01/12 12:28:15;;;;;;;11.23;1.63;;;;;;;;;;5042966;28;20045;-84
2024/01/12 12:30:46;;;;;;;6.38;1.40;;;;;;;;;;5042915;28;20154;-74
2024/01/12 12:33:18;;;;;;;7.22;1.27;;;;;;;;;;5042349;28;20412;-76
2024/01/12 12:36:00;;;;;;;10.35;1.33;;;;;;;;;;5043472;28;20055;-77
2024/01/12 12:38:33;;;;;;;6.50;1.00;;;;;;;;;;5042889;28;20056;-75
2024/01/12 12:41:03;;;;;;;6.28;1.30;;;;;;;;;;5043847;28;20049;-75
2024/01/12 12:43:35;;;;;;;6.90;0.90;;;;;;;;;;5044166;28;20049;-75
2024/01/12 12:46:05;;;;;;;14.13;3.95;;;;;;;;;;5043792;28;20088;-74
2024/01/12 12:48:42;;;;;;;7.60;1.05;;;;;;;;;;5043629;28;20052;-77
2024/01/12 12:51:13;;;;;;;4.90;1.08;;;;;;;;;;5043314;28;20037;-74
2024/01/12 12:53:44;;;;;;;10.15;1.65;;;;;;;;;;5043082;28;20049;-76
2024/01/12 12:56:15;;;;;;;5.10;1.02;;;;;;;;;;5043152;28;20053;-74
2024/01/12 12:58:45;;;;;;;5.45;1.58;;;;;;;;;;5043668;28;20523;-76
2024/01/12 13:01:16;;;;;;;5.47;1.13;;;;;;;;;;5043567;28;20404;-77
2024/01/12 13:03:48;;;;;;;6.00;1.05;;;;;;;;;;5043138;28;20060;-71
2024/01/12 13:06:19;;;;;;;9.02;1.27;;;;;;;;;;5041944;28;20049;-78
2024/01/12 13:08:49;;;;;;;18.30;9.05;;;;;;;;;;5039775;28;20045;-74
2024/01/12 13:11:20;;;;;;;9.38;1.20;;;;;;;;;;5044871;28;20052;-73
2024/01/12 13:13:50;;;;;;;5.85;0.98;;;;;;;;;;5046591;28;20401;-75
2024/01/12 13:16:21;;;;;;;6.88;1.30;;;;;;;;;;5054481;28;20045;-74
2024/01/12 13:18:52;;;;;;;7.95;1.10;;;;;;;;;;5043212;28;20060;-75
2024/01/12 13:21:35;;;;;;;4.97;1.02;;;;;;;;;;5042672;28;20392;-78
2024/01/12 13:24:08;;;;;;;5.88;1.15;;;;;;;;;;5042882;28;20041;-73
2024/01/12 13:26:39;;;;;;;6.72;1.00;;;;;;;;;;5043061;28;20048;-74
2024/01/12 13:29:10;;;;;;;4.43;0.77;;;;;;;;;;5043195;28;20048;-76
2024/01/12 13:31:43;;;;;;;7.32;1.00;;;;;;;;;;5042613;28;20055;-74
2024/01/12 13:34:16;;;;;;;7.15;0.90;;;;;;;;;;5042888;28;20411;-73
2024/01/12 13:36:47;;;;;;;4.35;0.85;;;;;;;;;;5042960;28;20059;-73
2024/01/12 13:39:17;;;;;;;6.93;1.15;;;;;;;;;;5042633;28;20053;-77
2024/01/12 13:41:51;;;;;;;8.23;1.20;;;;;;;;;;5042245;28;20059;-75
2024/01/12 13:44:22;;;;;;;3.88;0.80;;;;;;;;;;5041856;28;20056;-74
2024/01/12 13:46:52;;;;;;;4.30;1.13;;;;;;;;;;5042592;28;20056;-76
2024/01/12 13:49:23;;;;;;;6.32;0.90;;;;;;;;;;5042300;28;20048;-75
2024/01/12 13:51:55;;;;;;;3.58;0.95;;;;;;;;;;5041571;28;20047;-75
2024/01/12 13:54:26;;;;;;;3.65;0.77;;;;;;;;;;5041929;28;20041;-74
2024/01/12 13:56:57;;;;;;;6.55;1.20;;;;;;;;;;5042523;28;20079;-76
2024/01/12 13:59:27;;;;;;;7.25;1.73;;;;;;;;;;5042472;28;20797;-75
2024/01/12 14:01:57;;;;;;;4.00;0.73;;;;;;;;;;5042072;28;20045;-75
2024/01/12 14:04:28;;;;;;;4.25;0.82;;;;;;;;;;5042586;28;20496;-70
2024/01/12 14:06:59;;;;;;;3.50;1.15;;;;;;;;;;5042862;28;20808;-77
2024/01/12 14:09:30;;;;;;;7.78;1.02;;;;;;;;;;5042357;28;20408;-72
2024/01/12 14:12:01;;;;;;;6.25;1.05;;;;;;;;;;5042245;28;20045;-73
2024/01/12 14:14:32;;;;;;;5.20;1.00;;;;;;;;;;5042159;28;20049;-73
2024/01/12 14:17:03;;;;;;;7.00;0.77;;;;;;;;;;5042655;28;20055;-73
2024/01/12 14:19:35;;;;;;;5.50;1.15;;;;;;;;;;5041575;28;20508;-78
2024/01/12 14:22:06;;;;;;;2.92;0.70;;;;;;;;;;5042276;28;20076;-73
2024/01/12 14:24:36;;;;;;;7.15;1.15;;;;;;;;;;5042057;28;21161;-74
2024/01/12 14:27:07;;;;;;;7.97;1.35;;;;;;;;;;5042178;28;20048;-74
2024/01/12 14:29:38;;;;;;;6.97;1.15;;;;;;;;;;5042382;28;20059;-77
2024/01/12 14:32:09;;;;;;;7.65;1.80;;;;;;;;;;5041242;28;20052;-76
2024/01/12 14:34:39;;;;;;;6.63;1.23;;;;;;;;;;5042187;28;20060;-73
2024/01/12 14:37:13;;;;;;;8.60;0.93;;;;;;;;;;5042090;28;20076;-75
2024/01/12 14:39:44;;;;;;;4.70;0.73;;;;;;;;;;5041935;28;20056;-75
2024/01/12 14:42:16;;;;;;;7.90;0.75;;;;;;;;;;5042054;28;20060;-75
2024/01/12 14:44:46;;;;;;;4.18;0.88;;;;;;;;;;5041722;28;20057;-73
2024/01/12 14:47:17;;;;;;;8.70;1.20;;;;;;;;;;5041776;28;20049;-74
2024/01/12 14:49:49;;;;;;;3.80;0.80;;;;;;;;;;5041990;28;20044;-74
2024/01/12 14:52:20;;;;;;;7.40;0.85;;;;;;;;;;5041185;28;20496;-73
2024/01/12 14:54:50;;;;;;;8.35;1.30;;;;;;;;;;5042570;28;20049;-73
2024/01/12 14:57:22;;;;;;;6.85;0.82;;;;;;;;;;5041412;28;20563;-76
2024/01/12 14:59:53;;;;;;;5.88;1.00;;;;;;;;;;5041421;28;20060;-74
2024/01/12 15:02:27;;;;;;;4.70;0.90;;;;;;;;;;5041418;28;20049;-73
2024/01/12 15:04:57;;;;;;;4.70;1.10;;;;;;;;;;5041265;28;20049;-73
2024/01/12 15:07:30;;;;;;;5.38;1.10;;;;;;;;;;5041265;28;20049;-73